Wetterdaten: Woche 30.10.17 - 05.11.17 (KW44)
Datum Zeit Temp. A. Feuchte A. Luftdruck Regen Wind Richtung Taupunkt Windchill Windben
30.10.2017 00:00 6,2 C 70 % 1010,7 hPa 0,0 l/m 6,4 km/h N 1,2 C 5,8 C 23,3 km/h
30.10.2017 01:00 6,4 C 68 % 1010,9 hPa 0,0 l/m 10,7 km/h N 1,0 C 3,3 C 27,8 km/h
30.10.2017 02:00 6,8 C 69 % 1011,3 hPa 0,0 l/m 12,6 km/h N 1,5 C 2,5 C 32,6 km/h
30.10.2017 03:00 6,5 C 69 % 1012,1 hPa 0,0 l/m 12,6 km/h N 1,2 C 2,2 C 31,8 km/h
30.10.2017 04:00 6,4 C 68 % 1012,4 hPa 0,0 l/m 11,4 km/h N 1,0 C 2,8 C 33,8 km/h
30.10.2017 05:00 6,4 C 68 % 1013,2 hPa 0,0 l/m 11,3 km/h N 0,9 C 2,8 C 32,2 km/h
30.10.2017 06:00 6,4 C 68 % 1013,8 hPa 0,0 l/m 10,2 km/h N 1,0 C 3,6 C 28,5 km/h
30.10.2017 07:00 6,6 C 72 % 1014,4 hPa 0,0 l/m 10,8 km/h N 1,8 C 3,4 C 30,6 km/h
30.10.2017 08:00 6,6 C 75 % 1015,3 hPa 0,0 l/m 13,4 km/h N 2,4 C 1,9 C 33,4 km/h
30.10.2017 09:00 5,5 C 81 % 1016,3 hPa 0,8 l/m 12,1 km/h N 2,4 C 1,4 C 29,0 km/h
30.10.2017 10:00 7,1 C 77 % 1016,5 hPa 0,3 l/m 9,4 km/h N 3,2 C 4,9 C 24,5 km/h
30.10.2017 11:00 8,1 C 63 % 1016,3 hPa 0,0 l/m 13,5 km/h N 1,5 C 3,6 C 35,8 km/h
30.10.2017 12:00 7,3 C 67 % 1017,0 hPa 0,0 l/m 8,4 km/h N 1,6 C 5,3 C 23,3 km/h
30.10.2017 13:00 8,1 C 64 % 1017,3 hPa 0,0 l/m 8,2 km/h N 1,7 C 6,1 C 27,8 km/h
30.10.2017 14:00 7,9 C 62 % 1017,8 hPa 0,0 l/m 12,0 km/h N 1,1 C 4,2 C 29,8 km/h
30.10.2017 15:00 7,9 C 61 % 1018,2 hPa 0,0 l/m 12,6 km/h N 0,9 C 3,9 C 33,0 km/h
30.10.2017 16:00 7,2 C 67 % 1019,3 hPa 0,0 l/m 9,3 km/h N 1,4 C 5,0 C 24,5 km/h
30.10.2017 17:00 6,3 C 72 % 1020,5 hPa 0,0 l/m 9,3 km/h N 1,7 C 3,9 C 24,5 km/h
30.10.2017 18:00 5,9 C 74 % 1021,5 hPa 0,0 l/m 7,1 km/h N 1,7 C 5,0 C 22,9 km/h
30.10.2017 19:00 6,2 C 73 % 1022,1 hPa 0,0 l/m 9,2 km/h N 1,6 C 4,0 C 23,7 km/h
30.10.2017 20:00 6,0 C 71 % 1022,8 hPa 0,0 l/m 7,8 km/h N 1,2 C 4,8 C 20,5 km/h
30.10.2017 21:00 5,9 C 71 % 1023,4 hPa 0,0 l/m 8,8 km/h N 0,9 C 3,9 C 25,3 km/h
30.10.2017 22:00 5,5 C 73 % 1023,5 hPa 0,0 l/m 6,9 km/h N 1,0 C 4,4 C 23,4 km/h
30.10.2017 23:00 5,3 C 73 % 1023,5 hPa 0,0 l/m 6,1 km/h N 0,9 C 4,9 C 18,5 km/h
31.10.2017 00:00 5,3 C 74 % 1023,8 hPa 0,0 l/m 4,5 km/h N 1,0 C 5,3 C 17,7 km/h
31.10.2017 01:00 5,2 C 74 % 1023,9 hPa 0,0 l/m 5,1 km/h N 1,0 C 4,9 C 16,5 km/h
31.10.2017 02:00 5,2 C 74 % 1023,9 hPa 0,0 l/m 5,2 km/h N 0,9 C 5,1 C 16,5 km/h
31.10.2017 03:00 5,6 C 74 % 1023,5 hPa 0,0 l/m 5,7 km/h N 1,4 C 5,6 C 20,5 km/h
31.10.2017 04:00 6,1 C 74 % 1023,7 hPa 0,0 l/m 6,6 km/h N 1,8 C 5,7 C 19,3 km/h
31.10.2017 05:00 6,3 C 74 % 1023,8 hPa 0,0 l/m 5,8 km/h N 1,9 C 5,7 C 21,7 km/h
31.10.2017 06:00 6,3 C 74 % 1024,1 hPa 0,0 l/m 6,0 km/h N 1,9 C 6,0 C 19,3 km/h
31.10.2017 07:00 6,4 C 74 % 1024,6 hPa 0,0 l/m 5,7 km/h N 2,1 C 6,4 C 19,3 km/h
31.10.2017 08:00 6,7 C 74 % 1025,3 hPa 0,0 l/m 8,0 km/h N 2,4 C 5,4 C 23,7 km/h
31.10.2017 09:00 7,0 C 73 % 1025,3 hPa 0,0 l/m 7,4 km/h N 2,5 C 6,2 C 22,5 km/h
31.10.2017 10:00 7,7 C 72 % 1025,4 hPa 0,0 l/m 6,1 km/h N 2,9 C 7,3 C 19,3 km/h
31.10.2017 11:00 8,8 C 67 % 1025,0 hPa 0,0 l/m 7,6 km/h N 3,0 C 7,8 C 22,1 km/h
31.10.2017 12:00 9,3 C 65 % 1024,6 hPa 0,0 l/m 9,5 km/h N 3,0 C 7,1 C 24,5 km/h
31.10.2017 13:00 9,4 C 64 % 1024,3 hPa 0,0 l/m 7,1 km/h N 2,8 C 8,8 C 21,7 km/h
31.10.2017 14:00 9,3 C 64 % 1024,2 hPa 0,0 l/m 6,4 km/h N 2,8 C 9,1 C 20,5 km/h
31.10.2017 15:00 9,3 C 64 % 1024,1 hPa 0,0 l/m 4,6 km/h N 2,8 C 9,3 C 15,7 km/h
31.10.2017 16:00 9,2 C 62 % 1024,2 hPa 0,0 l/m 5,0 km/h N 2,3 C 9,2 C 16,1 km/h
31.10.2017 17:00 8,8 C 64 % 1024,5 hPa 0,0 l/m 3,6 km/h N 2,3 C 8,8 C 16,9 km/h
31.10.2017 18:00 8,7 C 63 % 1024,9 hPa 0,0 l/m 5,6 km/h N 2,1 C 8,6 C 17,3 km/h
31.10.2017 19:00 8,5 C 64 % 1025,3 hPa 0,0 l/m 2,0 km/h N 2,1 C 8,5 C 15,7 km/h
31.10.2017 20:00 8,2 C 66 % 1025,4 hPa 0,0 l/m 1,5 km/h N 2,1 C 8,2 C 12,5 km/h
31.10.2017 21:00 7,7 C 68 % 1025,6 hPa 0,0 l/m 0,4 km/h N 2,1 C 7,7 C 7,6 km/h
31.10.2017 22:00 7,3 C 70 % 1025,5 hPa 0,0 l/m 0,2 km/h N 2,2 C 7,3 C 5,6 km/h
31.10.2017 23:00 7,3 C 70 % 1025,4 hPa 0,0 l/m 0,4 km/h N 2,2 C 7,3 C 4,4 km/h
01.11.2017 00:00 7,0 C 69 % 1025,1 hPa 0,0 l/m 0,3 km/h N 1,8 C 7,0 C 3,6 km/h
01.11.2017 01:00 6,2 C 73 % 1025,0 hPa 0,0 l/m 0,1 km/h N 1,6 C 6,2 C 2,0 km/h
01.11.2017 02:00 5,4 C 74 % 1024,8 hPa 0,0 l/m 0,0 km/h N 1,2 C 5,4 C 0,4 km/h
01.11.2017 03:00 3,6 C 77 % 1024,8 hPa 0,0 l/m 0,0 km/h N -0,1 C 3,6 C 0,0 km/h
01.11.2017 04:00 2,0 C 80 % 1024,9 hPa 0,0 l/m 0,0 km/h N -1,1 C 2,0 C 0,0 km/h
01.11.2017 05:00 1,0 C 82 % 1024,7 hPa 0,0 l/m 0,0 km/h N -1,9 C 1,0 C 0,0 km/h
01.11.2017 06:00 0,5 C 83 % 1024,5 hPa 0,0 l/m 0,0 km/h N -2,1 C 0,5 C 0,0 km/h
01.11.2017 07:00 1,7 C 83 % 1024,7 hPa 0,0 l/m 0,0 km/h N -0,9 C 1,7 C 0,4 km/h
01.11.2017 08:00 4,0 C 83 % 1024,8 hPa 0,0 l/m 0,0 km/h N 1,3 C 4,0 C 1,2 km/h
01.11.2017 09:00 6,2 C 83 % 1024,6 hPa 0,0 l/m 0,0 km/h N 3,5 C 6,2 C 0,4 km/h
01.11.2017 10:00 8,2 C 81 % 1024,3 hPa 0,0 l/m 0,0 km/h N 5,2 C 8,2 C 0,4 km/h
01.11.2017 11:00 10,5 C 63 % 1023,5 hPa 0,0 l/m 3,4 km/h N 3,7 C 10,5 C 12,9 km/h
01.11.2017 12:00 11,2 C 60 % 1022,8 hPa 0,0 l/m 0,8 km/h N 3,8 C 11,2 C 12,5 km/h
01.11.2017 13:00 11,1 C 58 % 1022,5 hPa 0,0 l/m 4,0 km/h N 3,2 C 11,1 C 17,3 km/h
01.11.2017 14:00 10,4 C 61 % 1022,2 hPa 0,0 l/m 4,4 km/h N 3,2 C 10,4 C 17,7 km/h
01.11.2017 15:00 10,3 C 65 % 1022,0 hPa 0,0 l/m 5,2 km/h N 4,0 C 10,3 C 22,9 km/h
01.11.2017 16:00 10,1 C 68 % 1022,1 hPa 0,0 l/m 3,2 km/h N 4,4 C 10,1 C 15,7 km/h
01.11.2017 17:00 10,1 C 69 % 1022,1 hPa 0,0 l/m 1,3 km/h N 4,7 C 10,1 C 14,1 km/h
01.11.2017 18:00 10,2 C 68 % 1022,0 hPa 0,0 l/m 2,4 km/h N 4,5 C 10,2 C 15,7 km/h
01.11.2017 19:00 10,4 C 65 % 1021,6 hPa 0,0 l/m 2,0 km/h N 4,0 C 10,4 C 12,5 km/h
01.11.2017 20:00 10,3 C 65 % 1021,3 hPa 0,0 l/m 0,4 km/h N 4,0 C 10,3 C 5,6 km/h
01.11.2017 21:00 9,8 C 68 % 1021,0 hPa 0,0 l/m 0,0 km/h N 4,1 C 9,8 C 0,0 km/h
01.11.2017 22:00 8,0 C 73 % 1020,8 hPa 0,0 l/m 0,0 km/h N 3,4 C 8,0 C 0,8 km/h
01.11.2017 23:00 6,4 C 78 % 1020,6 hPa 0,0 l/m 0,0 km/h N 2,8 C 6,4 C 0,0 km/h
02.11.2017 00:00 5,6 C 81 % 1020,4 hPa 0,0 l/m 0,0 km/h N 2,7 C 5,6 C 0,0 km/h
02.11.2017 01:00 5,4 C 82 % 1019,8 hPa 0,0 l/m 0,0 km/h N 2,5 C 5,4 C 0,0 km/h
02.11.2017 02:00 4,4 C 82 % 1019,2 hPa 0,0 l/m 0,0 km/h N 1,6 C 4,4 C 0,0 km/h
02.11.2017 03:00 3,7 C 83 % 1018,7 hPa 0,0 l/m 0,0 km/h N 1,1 C 3,7 C 0,0 km/h
02.11.2017 04:00 3,3 C 83 % 1018,0 hPa 0,0 l/m 0,0 km/h N 0,7 C 3,3 C 0,0 km/h
02.11.2017 05:00 2,9 C 83 % 1017,4 hPa 0,0 l/m 0,0 km/h N 0,3 C 2,9 C 0,0 km/h
02.11.2017 06:00 2,3 C 83 % 1016,8 hPa 0,0 l/m 0,0 km/h N -0,3 C 2,3 C 0,0 km/h
02.11.2017 07:00 2,4 C 83 % 1016,5 hPa 0,0 l/m 0,0 km/h N -0,2 C 2,4 C 0,0 km/h
02.11.2017 08:00 4,2 C 83 % 1016,0 hPa 0,0 l/m 0,0 km/h N 1,6 C 4,2 C 0,0 km/h
02.11.2017 09:00 6,8 C 84 % 1015,7 hPa 0,0 l/m 0,0 km/h N 4,2 C 6,8 C 0,8 km/h
02.11.2017 10:00 9,1 C 83 % 1015,3 hPa 0,0 l/m 0,0 km/h N 6,5 C 9,1 C 0,0 km/h
02.11.2017 11:00 10,6 C 83 % 1014,6 hPa 0,0 l/m 0,0 km/h N 7,7 C 10,6 C 0,8 km/h
02.11.2017 12:00 11,7 C 79 % 1013,6 hPa 0,0 l/m 0,0 km/h N 8,2 C 11,7 C 1,2 km/h
02.11.2017 13:00 12,8 C 75 % 1012,5 hPa 0,0 l/m 0,9 km/h N 8,5 C 12,8 C 9,6 km/h
02.11.2017 14:00 16,0 C 52 % 1011,7 hPa 0,0 l/m 6,2 km/h N 6,2 C 15,6 C 24,5 km/h
02.11.2017 15:00 15,6 C 54 % 1011,7 hPa 0,0 l/m 5,0 km/h N 6,4 C 15,6 C 25,8 km/h
02.11.2017 16:00 14,9 C 58 % 1011,8 hPa 0,0 l/m 2,2 km/h N 6,7 C 14,9 C 12,9 km/h
02.11.2017 17:00 14,8 C 61 % 1012,2 hPa 0,0 l/m 7,1 km/h N 7,2 C 14,3 C 23,3 km/h
02.11.2017 18:00 14,9 C 61 % 1012,6 hPa 0,0 l/m 10,3 km/h N 7,5 C 12,9 C 29,4 km/h
02.11.2017 19:00 14,5 C 63 % 1012,6 hPa 0,0 l/m 3,9 km/h N 7,6 C 14,4 C 17,3 km/h
02.11.2017 20:00 14,5 C 64 % 1012,7 hPa 0,0 l/m 4,9 km/h N 7,7 C 14,3 C 21,7 km/h
02.11.2017 21:00 14,8 C 61 % 1012,8 hPa 0,0 l/m 8,6 km/h N 7,4 C 13,6 C 26,5 km/h
02.11.2017 22:00 14,3 C 63 % 1012,9 hPa 0,0 l/m 7,4 km/h N 7,4 C 13,8 C 23,7 km/h
02.11.2017 23:00 14,1 C 65 % 1013,2 hPa 0,0 l/m 3,8 km/h N 7,6 C 14,1 C 14,5 km/h
03.11.2017 00:00 13,8 C 66 % 1013,4 hPa 0,0 l/m 4,9 km/h N 7,5 C 13,8 C 16,9 km/h
03.11.2017 01:00 13,1 C 69 % 1013,7 hPa 0,0 l/m 4,5 km/h N 7,5 C 13,1 C 16,5 km/h
03.11.2017 02:00 12,6 C 70 % 1013,9 hPa 0,0 l/m 5,4 km/h N 7,4 C 12,6 C 14,5 km/h
03.11.2017 03:00 12,2 C 71 % 1014,2 hPa 0,0 l/m 4,5 km/h N 7,0 C 12,2 C 17,3 km/h
03.11.2017 04:00 11,9 C 72 % 1014,7 hPa 0,0 l/m 3,1 km/h N 7,0 C 11,9 C 14,1 km/h
03.11.2017 05:00 11,4 C 74 % 1015,3 hPa 0,0 l/m 2,8 km/h N 6,9 C 11,4 C 14,1 km/h
03.11.2017 06:00 10,8 C 73 % 1015,8 hPa 0,0 l/m 3,3 km/h N 6,2 C 10,8 C 9,7 km/h
03.11.2017 07:00 10,5 C 74 % 1016,5 hPa 0,0 l/m 2,3 km/h N 6,1 C 10,5 C 7,2 km/h
03.11.2017 08:00 10,8 C 75 % 1016,9 hPa 0,0 l/m 4,6 km/h N 6,5 C 10,8 C 14,9 km/h
03.11.2017 09:00 11,4 C 71 % 1017,4 hPa 0,0 l/m 6,9 km/h N 6,4 C 11,0 C 18,5 km/h
03.11.2017 10:00 12,3 C 66 % 1017,7 hPa 0,0 l/m 7,2 km/h N 6,1 C 11,7 C 19,7 km/h
03.11.2017 11:00 13,1 C 62 % 1017,6 hPa 0,0 l/m 6,7 km/h N 6,0 C 12,7 C 19,7 km/h
03.11.2017 12:00 13,4 C 60 % 1017,5 hPa 0,0 l/m 6,5 km/h N 5,9 C 13,4 C 18,5 km/h
03.11.2017 13:00 13,4 C 60 % 1017,4 hPa 0,0 l/m 3,8 km/h N 5,8 C 13,4 C 16,9 km/h
03.11.2017 14:00 14,1 C 57 % 1017,3 hPa 0,0 l/m 6,7 km/h N 5,6 C 13,7 C 16,9 km/h
03.11.2017 15:00 13,1 C 61 % 1017,7 hPa 0,0 l/m 1,9 km/h N 5,7 C 13,1 C 7,6 km/h
03.11.2017 16:00 12,0 C 64 % 1017,9 hPa 0,0 l/m 0,1 km/h N 5,3 C 12,0 C 1,2 km/h
03.11.2017 17:00 9,5 C 70 % 1018,3 hPa 0,0 l/m 0,0 km/h N 4,3 C 9,5 C 0,0 km/h
03.11.2017 18:00 7,2 C 76 % 1019,0 hPa 0,0 l/m 0,0 km/h N 3,2 C 7,2 C 0,0 km/h
03.11.2017 19:00 5,9 C 79 % 1019,3 hPa 0,0 l/m 0,0 km/h N 2,6 C 5,9 C 0,0 km/h
03.11.2017 20:00 5,3 C 82 % 1019,4 hPa 0,0 l/m 0,0 km/h N 2,4 C 5,3 C 0,0 km/h
03.11.2017 21:00 4,4 C 82 % 1019,4 hPa 0,0 l/m 0,0 km/h N 1,7 C 4,4 C 0,0 km/h
03.11.2017 22:00 3,5 C 83 % 1019,3 hPa 0,0 l/m 0,0 km/h N 0,9 C 3,5 C 0,0 km/h
03.11.2017 23:00 2,8 C 83 % 1019,2 hPa 0,0 l/m 0,0 km/h N 0,2 C 2,8 C 0,0 km/h
04.11.2017 00:00 2,0 C 83 % 1018,5 hPa 0,0 l/m 0,0 km/h N -0,5 C 2,0 C 0,0 km/h
04.11.2017 01:00 1,5 C 83 % 1018,2 hPa 0,0 l/m 0,0 km/h N -1,1 C 1,5 C 0,0 km/h
04.11.2017 02:00 1,2 C 83 % 1017,5 hPa 0,0 l/m 0,0 km/h N -1,4 C 1,2 C 0,0 km/h
04.11.2017 03:00 0,6 C 83 % 1016,9 hPa 0,0 l/m 0,0 km/h N -1,9 C 0,6 C 0,0 km/h
04.11.2017 04:00 0,4 C 83 % 1016,5 hPa 0,0 l/m 0,0 km/h N -2,2 C 0,4 C 0,0 km/h
04.11.2017 05:00 0,2 C 83 % 1016,4 hPa 0,0 l/m 0,0 km/h N -2,4 C 0,2 C 0,0 km/h
04.11.2017 06:00 0,3 C 83 % 1016,4 hPa 0,0 l/m 0,0 km/h N -2,2 C 0,3 C 0,4 km/h
04.11.2017 07:00 0,9 C 84 % 1016,6 hPa 0,0 l/m 0,0 km/h N -1,5 C 0,9 C 0,0 km/h
04.11.2017 08:00 3,2 C 84 % 1016,6 hPa 0,0 l/m 0,0 km/h N 0,7 C 3,2 C 0,4 km/h
04.11.2017 09:00 6,9 C 84 % 1016,4 hPa 0,3 l/m 0,0 km/h N 4,4 C 6,9 C 0,8 km/h
04.11.2017 10:00 9,7 C 84 % 1016,1 hPa 0,0 l/m 1,3 km/h N 7,1 C 9,7 C 7,3 km/h
04.11.2017 11:00 12,9 C 77 % 1015,5 hPa 0,0 l/m 3,2 km/h N 9,0 C 12,9 C 10,4 km/h
04.11.2017 12:00 14,9 C 65 % 1015,1 hPa 0,0 l/m 3,4 km/h N 8,2 C 14,9 C 11,3 km/h
04.11.2017 13:00 14,8 C 62 % 1014,9 hPa 0,0 l/m 4,3 km/h N 7,6 C 14,8 C 12,1 km/h
04.11.2017 14:00 14,6 C 62 % 1014,9 hPa 0,0 l/m 3,0 km/h N 7,3 C 14,6 C 11,7 km/h
04.11.2017 15:00 13,6 C 65 % 1014,8 hPa 0,0 l/m 2,8 km/h N 7,0 C 13,6 C 10,9 km/h
04.11.2017 16:00 12,5 C 69 % 1015,0 hPa 0,0 l/m 0,4 km/h N 6,9 C 12,5 C 3,6 km/h
04.11.2017 17:00 10,8 C 72 % 1015,3 hPa 0,0 l/m 0,0 km/h N 5,9 C 10,8 C 0,0 km/h
04.11.2017 18:00 9,1 C 76 % 1015,4 hPa 0,0 l/m 0,0 km/h N 5,1 C 9,1 C 0,0 km/h
04.11.2017 19:00 7,1 C 79 % 1015,3 hPa 0,0 l/m 0,0 km/h N 3,7 C 7,1 C 0,0 km/h
04.11.2017 20:00 5,9 C 81 % 1015,3 hPa 0,0 l/m 0,0 km/h N 2,8 C 5,9 C 0,0 km/h
04.11.2017 21:00 4,8 C 82 % 1015,3 hPa 0,0 l/m 0,0 km/h N 2,0 C 4,8 C 0,0 km/h
04.11.2017 22:00 4,9 C 83 % 1015,0 hPa 0,0 l/m 0,0 km/h N 2,3 C 4,9 C 0,0 km/h
04.11.2017 23:00 4,6 C 83 % 1014,6 hPa 0,0 l/m 0,0 km/h N 2,0 C 4,6 C 0,0 km/h
05.11.2017 00:00 4,1 C 83 % 1014,1 hPa 0,0 l/m 0,0 km/h N 1,4 C 4,1 C 0,0 km/h
05.11.2017 01:00 3,8 C 83 % 1013,7 hPa 0,0 l/m 0,0 km/h N 1,2 C 3,8 C 0,0 km/h
05.11.2017 02:00 3,7 C 83 % 1013,3 hPa 0,0 l/m 0,0 km/h N 1,1 C 3,7 C 0,0 km/h
05.11.2017 03:00 3,9 C 83 % 1012,9 hPa 0,0 l/m 0,0 km/h N 1,3 C 3,9 C 0,0 km/h
05.11.2017 04:00 3,6 C 83 % 1012,5 hPa 0,0 l/m 0,0 km/h N 0,9 C 3,6 C 0,0 km/h
05.11.2017 05:00 3,1 C 83 % 1012,0 hPa 0,0 l/m 0,0 km/h N 0,5 C 3,1 C 0,0 km/h
05.11.2017 06:00 3,9 C 84 % 1011,7 hPa 0,0 l/m 0,0 km/h N 1,4 C 3,9 C 0,0 km/h
05.11.2017 07:00 5,1 C 84 % 1011,7 hPa 0,0 l/m 0,0 km/h N 2,6 C 5,1 C 0,0 km/h
05.11.2017 08:00 6,0 C 84 % 1011,6 hPa 0,0 l/m 0,0 km/h N 3,5 C 6,0 C 0,0 km/h
05.11.2017 09:00 7,0 C 84 % 1011,0 hPa 0,0 l/m 0,0 km/h N 4,5 C 7,0 C 0,4 km/h
05.11.2017 10:00 7,9 C 84 % 1010,6 hPa 0,0 l/m 0,1 km/h N 5,3 C 7,9 C 3,6 km/h
05.11.2017 11:00 8,8 C 84 % 1009,7 hPa 0,0 l/m 0,1 km/h N 6,1 C 8,8 C 2,0 km/h
05.11.2017 12:00 10,5 C 83 % 1009,0 hPa 0,0 l/m 0,2 km/h N 7,7 C 10,5 C 4,4 km/h
05.11.2017 13:00 12,7 C 81 % 1007,9 hPa 0,0 l/m 0,3 km/h N 9,5 C 12,7 C 6,0 km/h
05.11.2017 14:00 15,0 C 76 % 1006,8 hPa 0,0 l/m 0,2 km/h N 10,7 C 15,0 C 4,4 km/h
05.11.2017 15:00 14,8 C 74 % 1006,4 hPa 0,0 l/m 0,0 km/h N 10,1 C 14,8 C 1,2 km/h
05.11.2017 16:00 13,2 C 76 % 1006,5 hPa 0,0 l/m 0,0 km/h N 9,0 C 13,2 C 0,0 km/h
05.11.2017 17:00 11,8 C 80 % 1007,0 hPa 0,0 l/m 0,0 km/h N 8,3 C 11,8 C 0,0 km/h
05.11.2017 18:00 11,9 C 82 % 1007,6 hPa 0,0 l/m 0,2 km/h N 8,9 C 11,9 C 4,0 km/h
05.11.2017 19:00 12,1 C 79 % 1008,3 hPa 0,0 l/m 0,1 km/h N 8,6 C 12,1 C 1,6 km/h
05.11.2017 20:00 12,3 C 77 % 1009,5 hPa 0,0 l/m 2,2 km/h N 8,4 C 12,3 C 10,1 km/h
05.11.2017 21:00 12,3 C 74 % 1010,3 hPa 0,0 l/m 2,3 km/h N 7,8 C 12,3 C 12,5 km/h
05.11.2017 22:00 11,4 C 73 % 1011,0 hPa 0,0 l/m 4,6 km/h N 6,7 C 11,4 C 16,9 km/h
05.11.2017 23:00 10,6 C 71 % 1011,6 hPa 0,0 l/m 3,9 km/h N 5,5 C 10,6 C 15,7 km/h
Min-Datum _ 04.11.17 02.11.17 05.11.17 - 31.10.17 - 04.11.17 30.10.17 31.10.17
_ Min-Zeit 05:30 14:30 15:15 - 22:45 - 05:30 09:00 23:15
Minimum _ 0,1 C 50 % 1006,3 hPa - 0,0 km/h - -2,4 C -0,6 C 0,0 km/h
Max-Datum _ 02.11.17 02.11.17 31.10.17 30.10.17 30.10.17 - 05.11.17 02.11.17 30.10.17
_ Max-Zeit 14:15 08:45 21:00 09:00 15:45 - 14:30 14:45 05:00
Maximum _ 16,4 C 84 % 1025,6 hPa 0,8 l/m 16,5 km/h
N
- 10,9 C 16,1 C 41,8 km/h
N
Durchschnitt _ 8,1 C 73 % 1017,6 hPa #1,3 l/m 3,3 km/h N 3,5 C 7,6 C 11,1 km/h